LFOH METAR and TAF | Updated Today

LFOH METAR

Le Havre Octeville Airport

Observation time: 19 min. ago

LFOH 252000Z AUTO 25016KT 9999 BKN020 BKN025 OVC035 14/12 Q1021

Need help? Read our tutorial on how to read METARs or read the parsed version below.

Le Havre Octeville Airport (LFOH) METAR

  • Weather conditions on Wed, 25 May 2022 20:00:00 +0000 (19 min. ago):
  • Present conditions: Dry
  • Clouds: Broken sky at 610 meters; broken sky at 762 meters; overcast sky at 1067 meters
  • Visibility: Greater than 10 km
  • Wind: 250 degrees at 16 knots
  • Temperature: 14 celsius
  • Dew point: 12 celsius
  • Pressure: 1021 millibars
  • Remarks: None


Useful to know...

LFOH TAF

Le Havre Octeville Airport

TAF AMD LFOH 251650Z 2516/2612 23013KT 9999 OVC020 TEMPO 2516/2606 3000 DZ OVC003
Observation time: 3:29 hr. ago
Need help? Read our tutorial on how to read TAFs or read the parsed version below.

Parsed version of TAF for Le Havre Octeville Airport (LFOH)

  • From 25 May at 16:00 UTC, to day 26 of the month at 12:00 UTC
  • Clouds: Overcast sky at 610 meters
  • Visibility: Greater than 10 km
  • Wind: 230 degrees at 13
  • Expected to arise temporarily, from 25 May at 16:00 UTC, to day 26 of the month at 06:00 UTC
  • Clouds: Overcast sky at 91 meters
  • Visibility: 3000 meters
  • Other: Drizzle